sensor_id;sensor_type;location;lat;lon;timestamp;temperature;humidity
59146;DHT22;44928;53.074;6.646;2023-06-26T00:01:06;22.00;99.90
59146;DHT22;44928;53.074;6.646;2023-06-26T00:03:33;22.00;99.90
59146;DHT22;44928;53.074;6.646;2023-06-26T00:05:59;22.00;99.90
59146;DHT22;44928;53.074;6.646;2023-06-26T00:08:27;22.00;99.90
59146;DHT22;44928;53.074;6.646;2023-06-26T00:10:52;21.90;99.90
59146;DHT22;44928;53.074;6.646;2023-06-26T00:13:18;21.90;99.90
59146;DHT22;44928;53.074;6.646;2023-06-26T00:15:44;21.90;99.90
59146;DHT22;44928;53.074;6.646;2023-06-26T00:18:11;21.90;99.90
59146;DHT22;44928;53.074;6.646;2023-06-26T00:20:36;21.80;99.90
59146;DHT22;44928;53.074;6.646;2023-06-26T00:23:02;21.80;99.90
59146;DHT22;44928;53.074;6.646;2023-06-26T00:25:33;21.80;99.90
59146;DHT22;44928;53.074;6.646;2023-06-26T00:27:59;21.80;99.90
59146;DHT22;44928;53.074;6.646;2023-06-26T00:30:25;21.80;99.90
59146;DHT22;44928;53.074;6.646;2023-06-26T00:32:51;21.70;99.90
59146;DHT22;44928;53.074;6.646;2023-06-26T00:35:17;21.70;99.90
59146;DHT22;44928;53.074;6.646;2023-06-26T00:37:43;21.70;99.90
59146;DHT22;44928;53.074;6.646;2023-06-26T00:40:09;21.70;99.90
59146;DHT22;44928;53.074;6.646;2023-06-26T00:42:35;21.70;99.90
59146;DHT22;44928;53.074;6.646;2023-06-26T00:45:01;21.70;99.90
59146;DHT22;44928;53.074;6.646;2023-06-26T00:47:27;21.70;99.90
59146;DHT22;44928;53.074;6.646;2023-06-26T00:49:54;21.70;99.90
59146;DHT22;44928;53.074;6.646;2023-06-26T00:52:20;21.70;99.90
59146;DHT22;44928;53.074;6.646;2023-06-26T00:54:46;21.70;99.90
59146;DHT22;44928;53.074;6.646;2023-06-26T00:57:12;21.60;99.90
59146;DHT22;44928;53.074;6.646;2023-06-26T00:59:38;21.60;99.90
59146;DHT22;44928;53.074;6.646;2023-06-26T01:02:04;21.60;99.90
59146;DHT22;44928;53.074;6.646;2023-06-26T01:04:31;21.50;99.90
59146;DHT22;44928;53.074;6.646;2023-06-26T01:06:59;21.60;99.90
59146;DHT22;44928;53.074;6.646;2023-06-26T01:09:27;21.50;99.90
59146;DHT22;44928;53.074;6.646;2023-06-26T01:11:53;21.50;99.90
59146;DHT22;44928;53.074;6.646;2023-06-26T01:14:19;21.50;99.90
59146;DHT22;44928;53.074;6.646;2023-06-26T01:16:45;21.50;99.90
59146;DHT22;44928;53.074;6.646;2023-06-26T01:19:32;21.50;99.90
59146;DHT22;44928;53.074;6.646;2023-06-26T01:24:45;21.50;99.90
59146;DHT22;44928;53.074;6.646;2023-06-26T01:27:15;21.50;99.90
59146;DHT22;44928;53.074;6.646;2023-06-26T01:29:43;21.40;99.90
59146;DHT22;44928;53.074;6.646;2023-06-26T01:32:10;21.40;99.90
59146;DHT22;44928;53.074;6.646;2023-06-26T01:34:36;21.40;99.90
59146;DHT22;44928;53.074;6.646;2023-06-26T01:37:02;21.30;99.90
59146;DHT22;44928;53.074;6.646;2023-06-26T01:39:27;21.30;99.90
59146;DHT22;44928;53.074;6.646;2023-06-26T01:41:53;21.30;99.90
59146;DHT22;44928;53.074;6.646;2023-06-26T01:44:28;21.30;99.90
59146;DHT22;44928;53.074;6.646;2023-06-26T01:47:04;21.20;99.90
59146;DHT22;44928;53.074;6.646;2023-06-26T01:49:50;21.20;99.90
59146;DHT22;44928;53.074;6.646;2023-06-26T01:52:44;21.20;99.90
59146;DHT22;44928;53.074;6.646;2023-06-26T01:58:15;21.10;99.90
59146;DHT22;44928;53.074;6.646;2023-06-26T02:00:42;21.10;99.90
59146;DHT22;44928;53.074;6.646;2023-06-26T02:03:09;21.10;99.90
59146;DHT22;44928;53.074;6.646;2023-06-26T02:05:34;21.10;99.90
59146;DHT22;44928;53.074;6.646;2023-06-26T02:08:00;21.00;99.90
59146;DHT22;44928;53.074;6.646;2023-06-26T02:10:29;21.00;99.90
59146;DHT22;44928;53.074;6.646;2023-06-26T02:12:55;21.00;99.90
59146;DHT22;44928;53.074;6.646;2023-06-26T02:15:21;21.00;99.90
59146;DHT22;44928;53.074;6.646;2023-06-26T02:17:47;21.00;99.90
59146;DHT22;44928;53.074;6.646;2023-06-26T02:20:14;21.00;99.90
59146;DHT22;44928;53.074;6.646;2023-06-26T02:22:41;20.90;99.90
59146;DHT22;44928;53.074;6.646;2023-06-26T02:25:08;20.90;99.90
59146;DHT22;44928;53.074;6.646;2023-06-26T02:27:34;20.90;99.90
59146;DHT22;44928;53.074;6.646;2023-06-26T02:30:00;20.90;99.90
59146;DHT22;44928;53.074;6.646;2023-06-26T02:32:25;20.90;99.90
59146;DHT22;44928;53.074;6.646;2023-06-26T02:34:51;20.90;99.90
59146;DHT22;44928;53.074;6.646;2023-06-26T02:37:17;20.90;99.90
59146;DHT22;44928;53.074;6.646;2023-06-26T02:39:43;20.90;99.90
59146;DHT22;44928;53.074;6.646;2023-06-26T02:42:09;20.90;99.90
59146;DHT22;44928;53.074;6.646;2023-06-26T02:44:35;20.90;99.90
59146;DHT22;44928;53.074;6.646;2023-06-26T02:47:00;20.90;99.90
59146;DHT22;44928;53.074;6.646;2023-06-26T02:49:26;20.90;99.90
59146;DHT22;44928;53.074;6.646;2023-06-26T02:51:52;20.90;99.90
59146;DHT22;44928;53.074;6.646;2023-06-26T02:54:18;20.90;99.90
59146;DHT22;44928;53.074;6.646;2023-06-26T02:56:43;20.90;99.90
59146;DHT22;44928;53.074;6.646;2023-06-26T02:59:09;20.90;99.90
59146;DHT22;44928;53.074;6.646;2023-06-26T03:01:35;20.80;99.90
59146;DHT22;44928;53.074;6.646;2023-06-26T03:04:00;20.80;99.90
59146;DHT22;44928;53.074;6.646;2023-06-26T03:06:29;20.90;99.90
59146;DHT22;44928;53.074;6.646;2023-06-26T03:08:55;20.90;99.90
59146;DHT22;44928;53.074;6.646;2023-06-26T03:11:21;20.90;99.90
59146;DHT22;44928;53.074;6.646;2023-06-26T03:13:46;20.90;99.90
59146;DHT22;44928;53.074;6.646;2023-06-26T03:16:12;20.90;99.90
59146;DHT22;44928;53.074;6.646;2023-06-26T03:18:38;20.90;99.90
59146;DHT22;44928;53.074;6.646;2023-06-26T03:21:04;20.90;99.90
59146;DHT22;44928;53.074;6.646;2023-06-26T03:23:30;20.90;99.90
59146;DHT22;44928;53.074;6.646;2023-06-26T03:25:55;20.90;99.90
59146;DHT22;44928;53.074;6.646;2023-06-26T03:28:21;20.90;99.90
59146;DHT22;44928;53.074;6.646;2023-06-26T03:30:47;20.90;99.90
59146;DHT22;44928;53.074;6.646;2023-06-26T03:33:13;20.90;99.90
59146;DHT22;44928;53.074;6.646;2023-06-26T03:35:38;20.90;99.90
59146;DHT22;44928;53.074;6.646;2023-06-26T03:38:05;20.90;99.90
59146;DHT22;44928;53.074;6.646;2023-06-26T03:40:31;20.90;99.90
59146;DHT22;44928;53.074;6.646;2023-06-26T03:42:57;20.90;99.90
59146;DHT22;44928;53.074;6.646;2023-06-26T03:45:22;21.00;99.90
59146;DHT22;44928;53.074;6.646;2023-06-26T03:47:48;21.00;99.90
59146;DHT22;44928;53.074;6.646;2023-06-26T03:50:18;21.00;99.90
59146;DHT22;44928;53.074;6.646;2023-06-26T03:52:44;21.10;99.90
59146;DHT22;44928;53.074;6.646;2023-06-26T03:55:10;21.10;99.90
59146;DHT22;44928;53.074;6.646;2023-06-26T03:57:36;21.10;99.90
59146;DHT22;44928;53.074;6.646;2023-06-26T04:00:03;21.20;99.90
59146;DHT22;44928;53.074;6.646;2023-06-26T04:02:34;21.20;99.90
59146;DHT22;44928;53.074;6.646;2023-06-26T04:05:00;21.20;99.90
59146;DHT22;44928;53.074;6.646;2023-06-26T04:07:26;21.30;99.90
59146;DHT22;44928;53.074;6.646;2023-06-26T04:09:52;21.20;99.90
59146;DHT22;44928;53.074;6.646;2023-06-26T04:12:18;21.20;99.90
59146;DHT22;44928;53.074;6.646;2023-06-26T04:14:43;21.20;99.90
59146;DHT22;44928;53.074;6.646;2023-06-26T04:17:10;21.20;99.90
59146;DHT22;44928;53.074;6.646;2023-06-26T04:19:35;21.20;99.90
59146;DHT22;44928;53.074;6.646;2023-06-26T04:22:02;21.20;99.90
59146;DHT22;44928;53.074;6.646;2023-06-26T04:24:28;21.20;99.90
59146;DHT22;44928;53.074;6.646;2023-06-26T04:26:54;21.20;99.90
59146;DHT22;44928;53.074;6.646;2023-06-26T04:29:23;21.20;99.90
59146;DHT22;44928;53.074;6.646;2023-06-26T04:31:51;21.10;99.90
59146;DHT22;44928;53.074;6.646;2023-06-26T04:34:17;21.20;99.90
59146;DHT22;44928;53.074;6.646;2023-06-26T04:36:43;21.10;99.90
59146;DHT22;44928;53.074;6.646;2023-06-26T04:39:14;21.10;99.90
59146;DHT22;44928;53.074;6.646;2023-06-26T04:41:40;21.10;99.90
59146;DHT22;44928;53.074;6.646;2023-06-26T04:44:06;21.20;99.90
59146;DHT22;44928;53.074;6.646;2023-06-26T04:46:32;21.10;99.90
59146;DHT22;44928;53.074;6.646;2023-06-26T04:48:58;21.20;99.90
59146;DHT22;44928;53.074;6.646;2023-06-26T04:51:25;21.20;99.90
59146;DHT22;44928;53.074;6.646;2023-06-26T04:53:52;21.30;99.90
59146;DHT22;44928;53.074;6.646;2023-06-26T04:56:18;21.30;99.90
59146;DHT22;44928;53.074;6.646;2023-06-26T04:58:44;21.30;99.90
59146;DHT22;44928;53.074;6.646;2023-06-26T05:01:10;21.30;99.90
59146;DHT22;44928;53.074;6.646;2023-06-26T05:03:35;21.40;99.90
59146;DHT22;44928;53.074;6.646;2023-06-26T05:06:02;21.30;99.90
59146;DHT22;44928;53.074;6.646;2023-06-26T05:08:28;21.30;99.90
59146;DHT22;44928;53.074;6.646;2023-06-26T05:10:53;21.30;99.90
59146;DHT22;44928;53.074;6.646;2023-06-26T05:13:26;21.30;99.90
59146;DHT22;44928;53.074;6.646;2023-06-26T05:15:52;21.30;99.90
59146;DHT22;44928;53.074;6.646;2023-06-26T05:18:18;21.30;99.90
59146;DHT22;44928;53.074;6.646;2023-06-26T05:20:45;21.30;99.90
59146;DHT22;44928;53.074;6.646;2023-06-26T05:23:11;21.30;99.90
59146;DHT22;44928;53.074;6.646;2023-06-26T05:25:38;21.30;99.90
59146;DHT22;44928;53.074;6.646;2023-06-26T05:28:04;21.30;99.90
59146;DHT22;44928;53.074;6.646;2023-06-26T05:30:31;21.30;99.90
59146;DHT22;44928;53.074;6.646;2023-06-26T05:33:00;21.30;99.90
59146;DHT22;44928;53.074;6.646;2023-06-26T05:35:30;21.30;99.90
59146;DHT22;44928;53.074;6.646;2023-06-26T05:37:57;21.30;99.90
59146;DHT22;44928;53.074;6.646;2023-06-26T05:40:24;21.30;99.90
59146;DHT22;44928;53.074;6.646;2023-06-26T05:42:50;21.20;99.90
59146;DHT22;44928;53.074;6.646;2023-06-26T05:45:16;21.30;99.90
59146;DHT22;44928;53.074;6.646;2023-06-26T05:47:42;21.10;99.90
59146;DHT22;44928;53.074;6.646;2023-06-26T05:50:09;21.00;99.90
59146;DHT22;44928;53.074;6.646;2023-06-26T05:52:36;20.90;99.90
59146;DHT22;44928;53.074;6.646;2023-06-26T05:55:02;20.80;99.90
59146;DHT22;44928;53.074;6.646;2023-06-26T05:57:29;20.80;99.90
59146;DHT22;44928;53.074;6.646;2023-06-26T05:59:56;20.80;99.90
59146;DHT22;44928;53.074;6.646;2023-06-26T06:02:22;20.70;99.90
59146;DHT22;44928;53.074;6.646;2023-06-26T06:04:47;20.70;99.90
59146;DHT22;44928;53.074;6.646;2023-06-26T06:07:14;20.70;99.90
59146;DHT22;44928;53.074;6.646;2023-06-26T06:09:39;20.60;99.90
59146;DHT22;44928;53.074;6.646;2023-06-26T06:12:06;20.60;99.90
59146;DHT22;44928;53.074;6.646;2023-06-26T06:14:33;20.60;99.90
59146;DHT22;44928;53.074;6.646;2023-06-26T06:17:00;20.60;99.90
59146;DHT22;44928;53.074;6.646;2023-06-26T06:19:26;20.50;99.90
59146;DHT22;44928;53.074;6.646;2023-06-26T06:21:51;20.50;99.90
59146;DHT22;44928;53.074;6.646;2023-06-26T06:24:17;20.50;99.90
59146;DHT22;44928;53.074;6.646;2023-06-26T06:26:43;20.40;99.90
59146;DHT22;44928;53.074;6.646;2023-06-26T06:29:09;20.40;99.90
59146;DHT22;44928;53.074;6.646;2023-06-26T06:31:35;20.40;99.90
59146;DHT22;44928;53.074;6.646;2023-06-26T06:34:00;20.40;99.90
59146;DHT22;44928;53.074;6.646;2023-06-26T06:36:27;20.30;99.90
59146;DHT22;44928;53.074;6.646;2023-06-26T06:38:52;20.40;99.90
59146;DHT22;44928;53.074;6.646;2023-06-26T06:41:19;20.40;99.90
59146;DHT22;44928;53.074;6.646;2023-06-26T06:43:45;20.30;99.90
59146;DHT22;44928;53.074;6.646;2023-06-26T06:46:11;20.30;99.90
59146;DHT22;44928;53.074;6.646;2023-06-26T06:48:37;20.30;99.90
59146;DHT22;44928;53.074;6.646;2023-06-26T06:51:03;20.40;99.90
59146;DHT22;44928;53.074;6.646;2023-06-26T06:53:29;20.40;99.90
59146;DHT22;44928;53.074;6.646;2023-06-26T06:55:55;20.50;99.90
59146;DHT22;44928;53.074;6.646;2023-06-26T06:58:21;20.50;99.90
59146;DHT22;44928;53.074;6.646;2023-06-26T07:00:49;20.50;99.90
59146;DHT22;44928;53.074;6.646;2023-06-26T07:03:14;20.60;99.90
59146;DHT22;44928;53.074;6.646;2023-06-26T07:05:43;20.60;99.90
59146;DHT22;44928;53.074;6.646;2023-06-26T07:08:09;20.70;99.90
59146;DHT22;44928;53.074;6.646;2023-06-26T07:10:35;20.70;99.90
59146;DHT22;44928;53.074;6.646;2023-06-26T07:13:01;20.80;99.90
59146;DHT22;44928;53.074;6.646;2023-06-26T07:15:27;20.80;99.90
59146;DHT22;44928;53.074;6.646;2023-06-26T07:17:53;20.80;99.90
59146;DHT22;44928;53.074;6.646;2023-06-26T07:20:19;20.80;99.90
59146;DHT22;44928;53.074;6.646;2023-06-26T07:22:45;20.80;99.90
59146;DHT22;44928;53.074;6.646;2023-06-26T07:25:11;20.90;99.90
59146;DHT22;44928;53.074;6.646;2023-06-26T07:27:37;20.90;99.90
59146;DHT22;44928;53.074;6.646;2023-06-26T07:30:04;21.00;99.90
59146;DHT22;44928;53.074;6.646;2023-06-26T07:32:30;21.00;99.90
59146;DHT22;44928;53.074;6.646;2023-06-26T07:34:56;21.00;99.90
59146;DHT22;44928;53.074;6.646;2023-06-26T07:37:22;21.10;99.90
59146;DHT22;44928;53.074;6.646;2023-06-26T07:39:51;21.10;99.90
59146;DHT22;44928;53.074;6.646;2023-06-26T07:42:16;21.10;99.90
59146;DHT22;44928;53.074;6.646;2023-06-26T07:44:42;21.10;99.90
59146;DHT22;44928;53.074;6.646;2023-06-26T07:47:09;21.00;99.90
59146;DHT22;44928;53.074;6.646;2023-06-26T07:49:35;21.00;99.90
59146;DHT22;44928;53.074;6.646;2023-06-26T07:52:01;21.10;99.90
59146;DHT22;44928;53.074;6.646;2023-06-26T07:54:27;21.10;99.90
59146;DHT22;44928;53.074;6.646;2023-06-26T07:56:56;21.10;99.90
59146;DHT22;44928;53.074;6.646;2023-06-26T07:59:24;21.20;99.90
59146;DHT22;44928;53.074;6.646;2023-06-26T08:01:51;21.20;99.90
59146;DHT22;44928;53.074;6.646;2023-06-26T08:04:21;21.30;99.90
59146;DHT22;44928;53.074;6.646;2023-06-26T08:06:49;21.40;99.90
59146;DHT22;44928;53.074;6.646;2023-06-26T08:09:15;21.40;99.90
59146;DHT22;44928;53.074;6.646;2023-06-26T08:11:41;21.40;99.90
59146;DHT22;44928;53.074;6.646;2023-06-26T08:14:07;21.30;99.90
59146;DHT22;44928;53.074;6.646;2023-06-26T08:16:33;21.30;99.90
59146;DHT22;44928;53.074;6.646;2023-06-26T08:18:58;21.20;99.90
59146;DHT22;44928;53.074;6.646;2023-06-26T08:21:24;21.20;99.90
59146;DHT22;44928;53.074;6.646;2023-06-26T08:23:51;21.20;99.90
59146;DHT22;44928;53.074;6.646;2023-06-26T08:26:17;21.30;99.90
59146;DHT22;44928;53.074;6.646;2023-06-26T08:28:43;21.30;99.90
59146;DHT22;44928;53.074;6.646;2023-06-26T08:31:09;21.30;99.90
59146;DHT22;44928;53.074;6.646;2023-06-26T08:33:34;21.30;99.90
59146;DHT22;44928;53.074;6.646;2023-06-26T08:36:00;21.30;99.90
59146;DHT22;44928;53.074;6.646;2023-06-26T08:38:26;21.30;99.90
59146;DHT22;44928;53.074;6.646;2023-06-26T08:40:52;21.30;99.90
59146;DHT22;44928;53.074;6.646;2023-06-26T08:43:17;21.40;99.90
59146;DHT22;44928;53.074;6.646;2023-06-26T08:45:44;21.50;99.90
59146;DHT22;44928;53.074;6.646;2023-06-26T08:48:12;21.50;99.90
59146;DHT22;44928;53.074;6.646;2023-06-26T08:50:38;21.60;99.90
59146;DHT22;44928;53.074;6.646;2023-06-26T08:55:45;21.70;99.90
59146;DHT22;44928;53.074;6.646;2023-06-26T08:58:12;21.70;99.90
59146;DHT22;44928;53.074;6.646;2023-06-26T09:00:38;21.60;99.90
59146;DHT22;44928;53.074;6.646;2023-06-26T09:03:05;21.60;99.90
59146;DHT22;44928;53.074;6.646;2023-06-26T09:05:31;21.60;99.90
59146;DHT22;44928;53.074;6.646;2023-06-26T09:07:57;21.60;99.90
59146;DHT22;44928;53.074;6.646;2023-06-26T09:10:24;21.60;99.90
59146;DHT22;44928;53.074;6.646;2023-06-26T09:12:50;21.70;99.90
59146;DHT22;44928;53.074;6.646;2023-06-26T09:15:19;21.90;99.90
59146;DHT22;44928;53.074;6.646;2023-06-26T09:17:45;22.00;99.90
59146;DHT22;44928;53.074;6.646;2023-06-26T09:20:12;22.10;99.90
59146;DHT22;44928;53.074;6.646;2023-06-26T09:22:43;22.20;99.90
59146;DHT22;44928;53.074;6.646;2023-06-26T09:25:12;22.30;99.90
59146;DHT22;44928;53.074;6.646;2023-06-26T09:27:38;22.20;99.90
59146;DHT22;44928;53.074;6.646;2023-06-26T09:30:04;22.20;99.90
59146;DHT22;44928;53.074;6.646;2023-06-26T09:32:37;22.30;99.90
59146;DHT22;44928;53.074;6.646;2023-06-26T09:35:03;22.50;99.90
59146;DHT22;44928;53.074;6.646;2023-06-26T09:37:28;22.70;99.90
59146;DHT22;44928;53.074;6.646;2023-06-26T09:39:54;22.90;99.90
59146;DHT22;44928;53.074;6.646;2023-06-26T09:42:20;23.10;99.90
59146;DHT22;44928;53.074;6.646;2023-06-26T09:44:47;23.20;99.90
59146;DHT22;44928;53.074;6.646;2023-06-26T09:47:18;23.00;99.70
59146;DHT22;44928;53.074;6.646;2023-06-26T09:49:45;22.80;99.90
59146;DHT22;44928;53.074;6.646;2023-06-26T09:52:15;22.70;99.90
59146;DHT22;44928;53.074;6.646;2023-06-26T09:54:42;22.50;99.90
59146;DHT22;44928;53.074;6.646;2023-06-26T09:57:17;22.40;99.90
59146;DHT22;44928;53.074;6.646;2023-06-26T09:59:43;22.40;99.90
59146;DHT22;44928;53.074;6.646;2023-06-26T10:02:12;22.40;99.90
59146;DHT22;44928;53.074;6.646;2023-06-26T10:04:38;22.30;99.90
59146;DHT22;44928;53.074;6.646;2023-06-26T10:07:11;22.10;99.90
59146;DHT22;44928;53.074;6.646;2023-06-26T10:09:46;21.90;99.90
59146;DHT22;44928;53.074;6.646;2023-06-26T10:12:19;21.90;99.90
59146;DHT22;44928;53.074;6.646;2023-06-26T10:14:45;22.10;99.90
59146;DHT22;44928;53.074;6.646;2023-06-26T10:17:15;22.40;99.90
59146;DHT22;44928;53.074;6.646;2023-06-26T10:19:44;22.70;99.30
59146;DHT22;44928;53.074;6.646;2023-06-26T10:22:12;22.80;99.60
59146;DHT22;44928;53.074;6.646;2023-06-26T10:24:40;23.10;99.50
59146;DHT22;44928;53.074;6.646;2023-06-26T10:27:31;23.10;98.80
59146;DHT22;44928;53.074;6.646;2023-06-26T10:30:02;23.10;98.60
59146;DHT22;44928;53.074;6.646;2023-06-26T10:32:29;23.00;98.60
59146;DHT22;44928;53.074;6.646;2023-06-26T10:34:55;23.00;98.70
59146;DHT22;44928;53.074;6.646;2023-06-26T10:37:50;23.10;98.40
59146;DHT22;44928;53.074;6.646;2023-06-26T10:40:26;23.20;97.70
59146;DHT22;44928;53.074;6.646;2023-06-26T10:43:05;23.40;96.90
59146;DHT22;44928;53.074;6.646;2023-06-26T10:45:33;23.80;96.60
59146;DHT22;44928;53.074;6.646;2023-06-26T10:47:59;24.10;96.30
59146;DHT22;44928;53.074;6.646;2023-06-26T10:50:33;24.40;95.90
59146;DHT22;44928;53.074;6.646;2023-06-26T11:03:42;24.30;94.80
59146;DHT22;44928;53.074;6.646;2023-06-26T11:06:10;24.40;93.20
59146;DHT22;44928;53.074;6.646;2023-06-26T11:08:50;24.20;93.60
59146;DHT22;44928;53.074;6.646;2023-06-26T11:11:17;24.10;93.40
59146;DHT22;44928;53.074;6.646;2023-06-26T11:13:45;23.90;93.70
59146;DHT22;44928;53.074;6.646;2023-06-26T11:16:30;23.90;93.60
59146;DHT22;44928;53.074;6.646;2023-06-26T11:19:00;23.80;94.20
59146;DHT22;44928;53.074;6.646;2023-06-26T11:21:27;24.10;93.70
59146;DHT22;44928;53.074;6.646;2023-06-26T11:24:04;23.80;92.60
59146;DHT22;44928;53.074;6.646;2023-06-26T11:26:30;23.60;93.40
59146;DHT22;44928;53.074;6.646;2023-06-26T11:28:56;23.60;93.00
59146;DHT22;44928;53.074;6.646;2023-06-26T11:31:30;23.60;93.40
59146;DHT22;44928;53.074;6.646;2023-06-26T11:34:13;23.60;93.20
59146;DHT22;44928;53.074;6.646;2023-06-26T11:36:40;23.40;92.30
59146;DHT22;44928;53.074;6.646;2023-06-26T11:39:48;23.30;93.50
59146;DHT22;44928;53.074;6.646;2023-06-26T11:42:14;23.50;94.10
59146;DHT22;44928;53.074;6.646;2023-06-26T11:44:41;23.60;93.50
59146;DHT22;44928;53.074;6.646;2023-06-26T11:47:18;23.50;94.20
59146;DHT22;44928;53.074;6.646;2023-06-26T11:49:48;23.70;93.30
59146;DHT22;44928;53.074;6.646;2023-06-26T11:52:17;23.80;93.20
59146;DHT22;44928;53.074;6.646;2023-06-26T11:54:44;23.90;93.30
59146;DHT22;44928;53.074;6.646;2023-06-26T11:57:15;24.00;92.90
59146;DHT22;44928;53.074;6.646;2023-06-26T11:59:41;23.80;92.80
59146;DHT22;44928;53.074;6.646;2023-06-26T12:02:11;23.60;93.00
59146;DHT22;44928;53.074;6.646;2023-06-26T12:04:40;23.50;93.00
59146;DHT22;44928;53.074;6.646;2023-06-26T12:07:08;23.50;93.10
59146;DHT22;44928;53.074;6.646;2023-06-26T12:09:43;23.50;93.50
59146;DHT22;44928;53.074;6.646;2023-06-26T12:12:15;23.50;93.50
59146;DHT22;44928;53.074;6.646;2023-06-26T12:14:41;23.50;93.50
59146;DHT22;44928;53.074;6.646;2023-06-26T12:17:10;23.50;93.40
59146;DHT22;44928;53.074;6.646;2023-06-26T12:19:38;23.40;93.10
59146;DHT22;44928;53.074;6.646;2023-06-26T12:22:07;23.40;92.80
59146;DHT22;44928;53.074;6.646;2023-06-26T12:24:36;23.40;93.00
59146;DHT22;44928;53.074;6.646;2023-06-26T12:27:07;23.30;91.60
59146;DHT22;44928;53.074;6.646;2023-06-26T12:29:33;23.10;92.20
59146;DHT22;44928;53.074;6.646;2023-06-26T12:31:59;22.90;92.70
59146;DHT22;44928;53.074;6.646;2023-06-26T12:34:32;22.80;93.50
59146;DHT22;44928;53.074;6.646;2023-06-26T12:37:03;22.80;92.40
59146;DHT22;44928;53.074;6.646;2023-06-26T12:39:29;23.00;91.80
59146;DHT22;44928;53.074;6.646;2023-06-26T12:42:02;23.00;91.50
59146;DHT22;44928;53.074;6.646;2023-06-26T12:44:29;23.10;91.80
59146;DHT22;44928;53.074;6.646;2023-06-26T12:46:58;23.20;92.20
59146;DHT22;44928;53.074;6.646;2023-06-26T12:49:41;23.30;92.00
59146;DHT22;44928;53.074;6.646;2023-06-26T12:52:17;23.20;91.90
59146;DHT22;44928;53.074;6.646;2023-06-26T12:54:44;23.10;92.60
59146;DHT22;44928;53.074;6.646;2023-06-26T12:57:13;23.00;92.40
59146;DHT22;44928;53.074;6.646;2023-06-26T12:59:41;23.00;92.10
59146;DHT22;44928;53.074;6.646;2023-06-26T13:02:08;22.80;92.40
59146;DHT22;44928;53.074;6.646;2023-06-26T13:04:34;22.70;92.50
59146;DHT22;44928;53.074;6.646;2023-06-26T13:07:00;22.50;92.70
59146;DHT22;44928;53.074;6.646;2023-06-26T13:09:31;22.40;91.90
59146;DHT22;44928;53.074;6.646;2023-06-26T13:11:59;22.30;91.70
59146;DHT22;44928;53.074;6.646;2023-06-26T13:14:24;22.20;91.50
59146;DHT22;44928;53.074;6.646;2023-06-26T13:16:51;22.10;91.40
59146;DHT22;44928;53.074;6.646;2023-06-26T13:19:17;22.10;91.90
59146;DHT22;44928;53.074;6.646;2023-06-26T13:21:43;22.00;92.00
59146;DHT22;44928;53.074;6.646;2023-06-26T13:24:09;22.00;92.30
59146;DHT22;44928;53.074;6.646;2023-06-26T13:26:35;22.00;92.60
59146;DHT22;44928;53.074;6.646;2023-06-26T13:29:01;22.00;92.80
59146;DHT22;44928;53.074;6.646;2023-06-26T13:31:27;22.10;93.10
59146;DHT22;44928;53.074;6.646;2023-06-26T13:33:53;22.10;92.80
59146;DHT22;44928;53.074;6.646;2023-06-26T13:36:19;22.00;93.30
59146;DHT22;44928;53.074;6.646;2023-06-26T13:38:45;21.90;94.00
59146;DHT22;44928;53.074;6.646;2023-06-26T13:41:11;21.90;94.00
59146;DHT22;44928;53.074;6.646;2023-06-26T13:43:37;21.90;93.00
59146;DHT22;44928;53.074;6.646;2023-06-26T13:46:03;21.80;93.10
59146;DHT22;44928;53.074;6.646;2023-06-26T13:48:29;21.80;93.40
59146;DHT22;44928;53.074;6.646;2023-06-26T13:50:55;21.80;93.60
59146;DHT22;44928;53.074;6.646;2023-06-26T13:53:22;21.80;93.90
59146;DHT22;44928;53.074;6.646;2023-06-26T13:55:47;21.90;94.20
59146;DHT22;44928;53.074;6.646;2023-06-26T13:58:13;21.80;94.50
59146;DHT22;44928;53.074;6.646;2023-06-26T14:00:40;21.80;94.80
59146;DHT22;44928;53.074;6.646;2023-06-26T14:03:06;21.80;95.10
59146;DHT22;44928;53.074;6.646;2023-06-26T14:05:36;21.80;95.60
59146;DHT22;44928;53.074;6.646;2023-06-26T14:08:08;21.80;95.50
59146;DHT22;44928;53.074;6.646;2023-06-26T14:10:34;21.90;95.60
59146;DHT22;44928;53.074;6.646;2023-06-26T14:13:03;21.90;95.20
59146;DHT22;44928;53.074;6.646;2023-06-26T14:15:30;21.80;95.40
59146;DHT22;44928;53.074;6.646;2023-06-26T14:17:56;21.80;95.60
59146;DHT22;44928;53.074;6.646;2023-06-26T14:20:22;21.80;95.70
59146;DHT22;44928;53.074;6.646;2023-06-26T14:22:49;21.90;95.50
59146;DHT22;44928;53.074;6.646;2023-06-26T14:25:15;22.00;95.00
59146;DHT22;44928;53.074;6.646;2023-06-26T14:27:41;22.10;93.70
59146;DHT22;44928;53.074;6.646;2023-06-26T14:30:08;22.00;94.10
59146;DHT22;44928;53.074;6.646;2023-06-26T14:32:34;21.90;93.50
59146;DHT22;44928;53.074;6.646;2023-06-26T14:35:01;21.90;93.30
59146;DHT22;44928;53.074;6.646;2023-06-26T14:37:30;21.90;93.60
59146;DHT22;44928;53.074;6.646;2023-06-26T14:39:56;22.00;93.70
59146;DHT22;44928;53.074;6.646;2023-06-26T14:42:23;22.00;93.50
59146;DHT22;44928;53.074;6.646;2023-06-26T14:44:49;22.00;93.50
59146;DHT22;44928;53.074;6.646;2023-06-26T14:47:19;22.00;93.60
59146;DHT22;44928;53.074;6.646;2023-06-26T14:49:44;22.10;93.40
59146;DHT22;44928;53.074;6.646;2023-06-26T14:52:10;22.20;92.90
59146;DHT22;44928;53.074;6.646;2023-06-26T14:54:36;22.10;91.70
59146;DHT22;44928;53.074;6.646;2023-06-26T14:57:03;22.10;91.80
59146;DHT22;44928;53.074;6.646;2023-06-26T14:59:29;22.00;92.00
59146;DHT22;44928;53.074;6.646;2023-06-26T15:01:55;22.00;92.20
59146;DHT22;44928;53.074;6.646;2023-06-26T15:04:21;21.90;92.30
59146;DHT22;44928;53.074;6.646;2023-06-26T15:06:46;21.90;91.80
59146;DHT22;44928;53.074;6.646;2023-06-26T15:09:12;22.00;92.10
59146;DHT22;44928;53.074;6.646;2023-06-26T15:11:38;21.90;92.10
59146;DHT22;44928;53.074;6.646;2023-06-26T15:14:04;21.80;92.50
59146;DHT22;44928;53.074;6.646;2023-06-26T15:16:30;21.70;93.20
59146;DHT22;44928;53.074;6.646;2023-06-26T15:18:55;21.70;93.20
59146;DHT22;44928;53.074;6.646;2023-06-26T15:21:21;21.70;93.40
59146;DHT22;44928;53.074;6.646;2023-06-26T15:23:47;21.70;93.20
59146;DHT22;44928;53.074;6.646;2023-06-26T15:26:13;21.60;93.80
59146;DHT22;44928;53.074;6.646;2023-06-26T15:28:39;21.50;94.20
59146;DHT22;44928;53.074;6.646;2023-06-26T15:31:05;21.40;94.70
59146;DHT22;44928;53.074;6.646;2023-06-26T15:33:31;21.30;94.70
59146;DHT22;44928;53.074;6.646;2023-06-26T15:35:57;21.10;95.10
59146;DHT22;44928;53.074;6.646;2023-06-26T15:38:22;20.90;95.30
59146;DHT22;44928;53.074;6.646;2023-06-26T15:40:48;21.00;94.90
59146;DHT22;44928;53.074;6.646;2023-06-26T15:43:14;21.00;94.70
59146;DHT22;44928;53.074;6.646;2023-06-26T15:45:40;21.00;94.70
59146;DHT22;44928;53.074;6.646;2023-06-26T15:48:06;21.10;93.50
59146;DHT22;44928;53.074;6.646;2023-06-26T15:50:31;21.20;92.70